createdAt,value
2023-01-09T00:01:47.171Z,94948.41
2023-01-09T00:04:13.568Z,94944.56
2023-01-09T00:06:39.987Z,94936.56
2023-01-09T00:09:06.342Z,94936.19
2023-01-09T00:11:32.733Z,94937.00
2023-01-09T00:13:59.093Z,94937.53
2023-01-09T00:16:25.475Z,94926.31
2023-01-09T00:18:51.875Z,94932.69
2023-01-09T00:21:18.211Z,94932.91
2023-01-09T00:23:44.602Z,94921.75
2023-01-09T00:26:10.998Z,94920.69
2023-01-09T00:28:37.350Z,94930.22
2023-01-09T00:31:03.714Z,94935.06
2023-01-09T00:33:30.081Z,94949.19
2023-01-09T00:35:56.457Z,94941.88
2023-01-09T00:38:22.853Z,94950.53
2023-01-09T00:40:49.208Z,94958.03
2023-01-09T00:43:15.601Z,94972.59
2023-01-09T00:45:42.005Z,94968.13
2023-01-09T00:48:08.380Z,95002.97
2023-01-09T00:50:34.730Z,95030.81
2023-01-09T00:53:01.083Z,95012.03
2023-01-09T00:55:27.478Z,95038.59
2023-01-09T00:57:53.862Z,95048.63
2023-01-09T01:00:20.254Z,95035.84
2023-01-09T01:02:46.653Z,95047.03
2023-01-09T01:05:13.034Z,95029.78
2023-01-09T01:07:39.428Z,95011.97
2023-01-09T01:10:05.791Z,95018.66
2023-01-09T01:12:32.167Z,95009.19
2023-01-09T01:14:58.529Z,94994.34
2023-01-09T01:17:24.926Z,94993.53
2023-01-09T01:19:51.258Z,94994.06
2023-01-09T01:22:17.596Z,95017.06
2023-01-09T01:24:43.983Z,95029.75
2023-01-09T01:27:10.392Z,95033.50
2023-01-09T01:29:36.733Z,95058.13
2023-01-09T01:32:03.100Z,95084.84
2023-01-09T01:34:29.474Z,95068.09
2023-01-09T01:36:55.842Z,95075.38
2023-01-09T01:39:22.190Z,95103.03
2023-01-09T01:41:48.552Z,95113.13
2023-01-09T01:44:14.945Z,95130.41
2023-01-09T01:46:41.333Z,95145.88
2023-01-09T01:49:07.735Z,95154.00
2023-01-09T01:51:34.089Z,95167.34
2023-01-09T01:54:00.471Z,95144.81
2023-01-09T01:56:26.856Z,95142.31
2023-01-09T01:58:53.254Z,95179.06
2023-01-09T02:01:19.679Z,95190.63
2023-01-09T02:03:46.093Z,95192.16
2023-01-09T02:06:12.457Z,95210.75
2023-01-09T02:08:38.808Z,95213.06
2023-01-09T02:11:05.135Z,95219.84
2023-01-09T02:13:31.472Z,95226.97
2023-01-09T02:15:57.863Z,95229.63
2023-01-09T02:18:24.291Z,95228.06
2023-01-09T02:20:50.659Z,95236.75
2023-01-09T02:23:17.002Z,95240.94
2023-01-09T02:25:43.337Z,95242.94
2023-01-09T02:28:09.688Z,95265.03
2023-01-09T02:30:36.022Z,95290.19
2023-01-09T02:33:02.399Z,95293.94
2023-01-09T02:35:28.736Z,95311.31
2023-01-09T02:37:55.067Z,95325.59
2023-01-09T02:40:21.405Z,95327.88
2023-01-09T02:42:47.793Z,95334.78
2023-01-09T02:45:14.187Z,95336.00
2023-01-09T02:47:40.577Z,95337.06
2023-01-09T02:50:06.930Z,95325.66
2023-01-09T02:52:33.262Z,95324.59
2023-01-09T02:54:59.613Z,95342.81
2023-01-09T02:57:25.999Z,95343.44
2023-01-09T02:59:54.008Z,95354.75
2023-01-09T03:02:20.564Z,95351.53
2023-01-09T03:04:46.947Z,95361.13
2023-01-09T03:07:13.338Z,95380.13
2023-01-09T03:09:39.727Z,95385.78
2023-01-09T03:12:06.103Z,95391.97
2023-01-09T03:14:32.454Z,95396.66
2023-01-09T03:16:58.830Z,95410.44
2023-01-09T03:19:25.228Z,95420.00
2023-01-09T03:21:51.659Z,95426.84
2023-01-09T03:24:18.080Z,95427.94
2023-01-09T03:26:44.469Z,95442.09
2023-01-09T03:29:10.829Z,95449.47
2023-01-09T03:31:37.292Z,95476.03
2023-01-09T03:34:03.737Z,95488.44
2023-01-09T03:36:30.068Z,95488.59
2023-01-09T03:38:56.402Z,95498.28
2023-01-09T03:41:22.738Z,95493.81
2023-01-09T03:43:49.153Z,95493.97
2023-01-09T03:46:15.560Z,95486.75
2023-01-09T03:48:41.949Z,95482.59
2023-01-09T03:51:08.365Z,95475.22
2023-01-09T03:53:34.766Z,95478.13
2023-01-09T03:56:01.155Z,95495.13
2023-01-09T03:58:27.511Z,95497.66
2023-01-09T04:00:54.010Z,95507.78
2023-01-09T04:03:20.443Z,95520.94
2023-01-09T04:05:46.791Z,95516.19
2023-01-09T04:08:13.180Z,95526.75
2023-01-09T04:10:39.570Z,95537.47
2023-01-09T04:13:05.916Z,95548.03
2023-01-09T04:15:32.285Z,95555.00
2023-01-09T04:17:58.612Z,95538.47
2023-01-09T04:20:24.997Z,95562.03
2023-01-09T04:22:51.349Z,95555.81
2023-01-09T04:25:17.731Z,95572.84
2023-01-09T04:27:44.069Z,95558.84
2023-01-09T04:30:10.459Z,95569.97
2023-01-09T04:32:36.811Z,95568.31
2023-01-09T04:35:03.140Z,95566.69
2023-01-09T04:37:30.902Z,95563.31
2023-01-09T04:39:57.260Z,95549.72
2023-01-09T04:42:23.594Z,95564.13
2023-01-09T04:44:49.989Z,95568.91
2023-01-09T04:47:16.344Z,95574.81
2023-01-09T04:49:42.703Z,95572.88
2023-01-09T04:52:09.072Z,95580.16
2023-01-09T04:54:35.417Z,95579.75
2023-01-09T04:57:01.753Z,95581.25
2023-01-09T04:59:28.129Z,95589.22
2023-01-09T05:01:54.632Z,95593.34
2023-01-09T05:04:21.165Z,95589.22
2023-01-09T05:06:47.515Z,95590.63
2023-01-09T05:09:13.885Z,95593.50
2023-01-09T05:11:40.269Z,95597.03
2023-01-09T05:14:06.617Z,95600.22
2023-01-09T05:16:33.005Z,95603.59
2023-01-09T05:18:59.354Z,95599.09
2023-01-09T05:21:25.733Z,95596.38
2023-01-09T05:23:52.131Z,95584.72
2023-01-09T05:26:18.487Z,95585.50
2023-01-09T05:28:44.815Z,95583.03
2023-01-09T05:31:11.200Z,95597.75
2023-01-09T05:33:37.599Z,95582.28
2023-01-09T05:36:03.976Z,95586.84
2023-01-09T05:38:30.387Z,95582.78
2023-01-09T05:40:56.720Z,95592.59
2023-01-09T05:43:23.093Z,95586.47
2023-01-09T05:45:49.512Z,95594.59
2023-01-09T05:48:15.957Z,95589.34
2023-01-09T05:50:42.333Z,95594.44
2023-01-09T05:53:08.703Z,95593.25
2023-01-09T05:55:35.092Z,95597.19
2023-01-09T05:58:01.487Z,95600.69
2023-01-09T06:00:27.858Z,95605.34
2023-01-09T06:02:54.283Z,95606.69
2023-01-09T06:05:20.698Z,95611.03
2023-01-09T06:07:47.065Z,95601.06
2023-01-09T06:10:13.420Z,95608.97
2023-01-09T06:12:39.794Z,95597.84
2023-01-09T06:15:08.772Z,95608.03
2023-01-09T06:17:35.344Z,95613.09
2023-01-09T06:20:01.735Z,95613.53
2023-01-09T06:22:28.144Z,95617.63
2023-01-09T06:24:54.546Z,95622.06
2023-01-09T06:27:20.891Z,95605.50
2023-01-09T06:29:47.270Z,95608.75
2023-01-09T06:32:13.631Z,95598.22
2023-01-09T06:34:39.952Z,95597.19
2023-01-09T06:37:06.362Z,95591.84
2023-01-09T06:39:32.771Z,95595.22
2023-01-09T06:41:59.109Z,95588.03
2023-01-09T06:44:25.480Z,95597.88
2023-01-09T06:46:51.885Z,95593.25
2023-01-09T06:49:18.236Z,95590.66
2023-01-09T06:51:44.594Z,95591.16
2023-01-09T06:54:10.988Z,95582.19
2023-01-09T06:56:37.379Z,95584.59
2023-01-09T06:59:03.790Z,95583.47
2023-01-09T07:01:30.226Z,95591.78
2023-01-09T07:03:56.701Z,95601.59
2023-01-09T07:06:23.055Z,95604.81
2023-01-09T07:08:49.407Z,95608.34
2023-01-09T07:11:15.815Z,95615.16
2023-01-09T07:13:42.210Z,95612.06
2023-01-09T07:16:08.636Z,95603.72
2023-01-09T07:18:35.035Z,95603.19
2023-01-09T07:21:01.413Z,95595.44
2023-01-09T07:23:27.859Z,95600.69
2023-01-09T07:25:54.243Z,95586.47
2023-01-09T07:28:20.633Z,95587.53
2023-01-09T07:30:47.033Z,95596.59
2023-01-09T07:33:13.429Z,95591.16
2023-01-09T07:35:39.775Z,95597.28
2023-01-09T07:38:06.151Z,95593.78
2023-01-09T07:40:32.553Z,95608.47
2023-01-09T07:42:58.904Z,95606.56
2023-01-09T07:45:25.302Z,95600.81
2023-01-09T07:47:51.682Z,95604.09
2023-01-09T07:50:18.077Z,95604.75
2023-01-09T07:52:44.420Z,95612.66
2023-01-09T07:55:10.806Z,95602.88
2023-01-09T07:57:37.157Z,95600.53
2023-01-09T08:00:03.536Z,95601.03
2023-01-09T08:02:29.959Z,95598.50
2023-01-09T08:04:56.380Z,95600.13
2023-01-09T08:07:22.726Z,95601.59
2023-01-09T08:09:49.085Z,95607.34
2023-01-09T08:12:15.498Z,95600.69
2023-01-09T08:14:41.881Z,95613.72
2023-01-09T08:17:08.225Z,95608.81
2023-01-09T08:19:34.602Z,95612.44
2023-01-09T08:22:00.990Z,95610.19
2023-01-09T08:24:27.363Z,95611.53
2023-01-09T08:26:53.755Z,95598.84
2023-01-09T08:29:20.105Z,95604.69
2023-01-09T08:31:46.617Z,95599.13
2023-01-09T08:34:12.981Z,95608.06
2023-01-09T08:36:39.370Z,95605.69
2023-01-09T08:39:05.757Z,95591.34
2023-01-09T08:41:32.147Z,95585.22
2023-01-09T08:43:58.529Z,95567.44
2023-01-09T08:46:24.931Z,95554.50
2023-01-09T08:48:51.295Z,95549.78
2023-01-09T08:51:17.642Z,95559.81
2023-01-09T08:53:43.993Z,95575.03
2023-01-09T08:56:10.382Z,95579.56
2023-01-09T08:58:36.808Z,95568.41
2023-01-09T09:01:03.205Z,95562.22
2023-01-09T09:03:29.544Z,95575.31
2023-01-09T09:05:55.887Z,95575.50
2023-01-09T09:08:22.214Z,95582.13
2023-01-09T09:10:48.612Z,95578.13
2023-01-09T09:13:14.977Z,95588.66
2023-01-09T09:15:41.412Z,95598.97
2023-01-09T09:18:07.757Z,95594.91
2023-01-09T09:20:34.109Z,95598.09
2023-01-09T09:23:00.444Z,95593.47
2023-01-09T09:25:26.861Z,95606.78
2023-01-09T09:27:53.214Z,95597.19
2023-01-09T09:30:19.584Z,95611.03
2023-01-09T09:32:45.977Z,95616.56
2023-01-09T09:35:12.333Z,95616.06
2023-01-09T09:37:38.718Z,95621.50
2023-01-09T09:40:17.593Z,95623.53
2023-01-09T09:42:44.943Z,95639.94
2023-01-09T09:45:11.342Z,95646.94
2023-01-09T09:47:37.732Z,95662.00
2023-01-09T09:50:04.099Z,95652.84
2023-01-09T09:52:30.495Z,95661.63
2023-01-09T09:54:56.863Z,95659.38
2023-01-09T09:57:23.248Z,95663.66
2023-01-09T09:59:49.601Z,95667.69
2023-01-09T10:02:16.032Z,95673.47
2023-01-09T10:04:42.406Z,95678.47
2023-01-09T10:07:08.797Z,95683.28
2023-01-09T10:09:35.162Z,95686.78
2023-01-09T10:12:01.506Z,95680.59
2023-01-09T10:14:27.848Z,95670.16
2023-01-09T10:16:54.192Z,95673.63
2023-01-09T10:19:20.569Z,95670.47
2023-01-09T10:21:46.973Z,95674.03
2023-01-09T10:24:13.376Z,95676.00
2023-01-09T10:26:39.810Z,95682.00
2023-01-09T10:29:06.187Z,95683.06
2023-01-09T10:31:32.612Z,95670.00
2023-01-09T10:33:59.054Z,95678.69
2023-01-09T10:36:25.473Z,95678.53
2023-01-09T10:38:51.826Z,95681.44
2023-01-09T10:41:18.203Z,95683.44
2023-01-09T10:43:44.577Z,95668.84
2023-01-09T10:46:11.018Z,95677.78
2023-01-09T10:48:37.409Z,95671.06
2023-01-09T10:51:03.793Z,95672.00
2023-01-09T10:53:30.155Z,95669.03
2023-01-09T10:55:56.542Z,95651.75
2023-01-09T10:58:22.942Z,95661.78
2023-01-09T11:00:49.293Z,95656.03
2023-01-09T11:03:15.756Z,95657.88
2023-01-09T11:05:42.153Z,95645.81
2023-01-09T11:08:08.508Z,95662.41
2023-01-09T11:10:34.859Z,95660.41
2023-01-09T11:13:01.243Z,95664.81
2023-01-09T11:15:27.619Z,95674.53
2023-01-09T11:17:54.055Z,95672.63
2023-01-09T11:20:20.451Z,95680.41
2023-01-09T11:22:46.799Z,95685.78
2023-01-09T11:25:13.192Z,95679.06
2023-01-09T11:27:39.536Z,95662.06
2023-01-09T11:30:06.056Z,95664.69
2023-01-09T11:32:32.437Z,95661.13
2023-01-09T11:34:58.789Z,95651.31
2023-01-09T11:37:25.174Z,95653.16
2023-01-09T11:39:51.538Z,95655.59
2023-01-09T11:42:17.879Z,95645.97
2023-01-09T11:44:44.216Z,95634.00
2023-01-09T11:47:10.590Z,95637.28
2023-01-09T11:49:36.934Z,95634.50
2023-01-09T11:52:03.329Z,95628.03
2023-01-09T11:54:29.739Z,95631.53
2023-01-09T11:56:56.121Z,95622.22
2023-01-09T11:59:22.539Z,95616.09
2023-01-09T12:01:48.917Z,95604.38
2023-01-09T12:04:15.260Z,95620.91
2023-01-09T12:06:41.642Z,95617.88
2023-01-09T12:09:08.246Z,95624.00
2023-01-09T12:11:34.667Z,95620.66
2023-01-09T12:14:01.134Z,95610.94
2023-01-09T12:16:27.586Z,95621.44
2023-01-09T12:18:54.007Z,95623.13
2023-01-09T12:21:20.367Z,95616.00
2023-01-09T12:23:46.760Z,95626.91
2023-01-09T12:26:13.102Z,95620.41
2023-01-09T12:28:39.490Z,95626.41
2023-01-09T12:31:05.843Z,95609.19
2023-01-09T12:33:32.193Z,95603.88
2023-01-09T12:35:58.517Z,95597.22
2023-01-09T12:38:24.910Z,95604.19
2023-01-09T12:40:51.441Z,95600.75
2023-01-09T12:43:17.859Z,95596.44
2023-01-09T12:45:44.235Z,95595.66
2023-01-09T12:48:10.603Z,95601.50
2023-01-09T12:50:36.973Z,95611.34
2023-01-09T12:53:03.327Z,95614.44
2023-01-09T12:55:29.665Z,95613.47
2023-01-09T12:57:56.059Z,95604.97
2023-01-09T13:00:22.436Z,95615.34
2023-01-09T13:02:49.532Z,95618.63
2023-01-09T13:05:16.778Z,95616.50
2023-01-09T13:07:43.127Z,95634.22
2023-01-09T13:10:09.524Z,95644.78
2023-01-09T13:12:35.887Z,95648.53
2023-01-09T13:15:02.244Z,95645.13
2023-01-09T13:17:28.927Z,95652.91
2023-01-09T13:19:55.277Z,95665.72
2023-01-09T13:22:21.708Z,95685.19
2023-01-09T13:24:48.069Z,95709.03
2023-01-09T13:27:14.454Z,95725.16
2023-01-09T13:29:40.849Z,95729.47
2023-01-09T13:32:07.192Z,95730.63
2023-01-09T13:34:33.542Z,95726.09
2023-01-09T13:37:00.077Z,95736.00
2023-01-09T13:39:26.486Z,95732.22
2023-01-09T13:41:52.815Z,95740.59
2023-01-09T13:44:19.199Z,95721.09
2023-01-09T13:46:45.542Z,95716.41
2023-01-09T13:49:11.906Z,95702.00
2023-01-09T13:51:38.292Z,95712.19
2023-01-09T13:54:04.695Z,95704.97
2023-01-09T13:56:31.055Z,95708.16
2023-01-09T13:58:57.455Z,95701.16
2023-01-09T14:01:23.847Z,95708.09
2023-01-09T14:03:50.191Z,95707.53
2023-01-09T14:06:16.539Z,95696.31
2023-01-09T14:08:42.926Z,95712.88
2023-01-09T14:11:09.322Z,95708.75
2023-01-09T14:13:35.675Z,95711.16
2023-01-09T14:16:02.105Z,95716.81
2023-01-09T14:18:28.524Z,95700.56
2023-01-09T14:20:54.921Z,95701.84
2023-01-09T14:23:39.021Z,95714.50
2023-01-09T14:26:07.611Z,95722.50
2023-01-09T14:28:33.957Z,95726.53
2023-01-09T14:31:00.348Z,95733.97
2023-01-09T14:33:26.744Z,95744.94
2023-01-09T14:35:53.099Z,95753.97
2023-01-09T14:38:19.445Z,95762.44
2023-01-09T14:40:45.793Z,95773.56
2023-01-09T14:43:12.479Z,95780.72
2023-01-09T14:45:38.899Z,95773.03
2023-01-09T14:48:05.272Z,95778.66
2023-01-09T14:50:31.643Z,95783.72
2023-01-09T14:52:57.982Z,95801.94
2023-01-09T14:55:24.370Z,95819.47
2023-01-09T14:57:50.719Z,95811.16
2023-01-09T15:00:17.110Z,95819.25
2023-01-09T15:02:43.525Z,95837.78
2023-01-09T15:05:09.858Z,95835.41
2023-01-09T15:07:36.247Z,95833.28
2023-01-09T15:10:02.657Z,95828.59
2023-01-09T15:12:29.003Z,95831.88
2023-01-09T15:14:55.357Z,95827.69
2023-01-09T15:17:21.681Z,95839.19
2023-01-09T15:19:48.059Z,95839.19
2023-01-09T15:22:14.402Z,95832.22
2023-01-09T15:24:40.780Z,95836.34
2023-01-09T15:27:07.174Z,95827.66
2023-01-09T15:29:33.517Z,95828.13
2023-01-09T15:31:59.997Z,95822.50
2023-01-09T15:34:26.413Z,95827.19
2023-01-09T15:36:52.918Z,95824.00
2023-01-09T15:39:19.343Z,95814.31
2023-01-09T15:41:45.693Z,95826.19
2023-01-09T15:44:12.100Z,95823.28
2023-01-09T15:46:38.603Z,95822.00
2023-01-09T15:49:04.944Z,95837.56
2023-01-09T15:51:31.318Z,95831.81
2023-01-09T15:53:57.660Z,95834.69
2023-01-09T15:56:24.153Z,95851.75
2023-01-09T15:58:50.618Z,95862.78
2023-01-09T16:01:17.137Z,95867.66
2023-01-09T16:03:43.576Z,95871.00
2023-01-09T16:06:09.976Z,95872.69
2023-01-09T16:08:36.379Z,95873.16
2023-01-09T16:11:02.779Z,95877.00
2023-01-09T16:13:29.153Z,95871.31
2023-01-09T16:15:55.489Z,95866.94
2023-01-09T16:18:21.835Z,95875.31
2023-01-09T16:20:48.215Z,95878.06
2023-01-09T16:23:14.631Z,95885.00
2023-01-09T16:25:41.022Z,95899.69
2023-01-09T16:28:08.533Z,95906.03
2023-01-09T16:30:34.924Z,95917.50
2023-01-09T16:33:01.251Z,95920.84
2023-01-09T16:35:27.595Z,95922.00
2023-01-09T16:37:53.935Z,95923.00
2023-01-09T16:40:20.321Z,95931.19
2023-01-09T16:42:46.736Z,95945.78
2023-01-09T16:45:13.080Z,95937.16
2023-01-09T16:47:39.420Z,95949.41
2023-01-09T16:50:05.771Z,95952.84
2023-01-09T16:52:32.162Z,95952.13
2023-01-09T16:54:58.511Z,95948.50
2023-01-09T16:57:24.846Z,95946.06
2023-01-09T16:59:51.186Z,95957.09
2023-01-09T17:02:17.655Z,95949.19
2023-01-09T17:04:44.030Z,95942.19
2023-01-09T17:07:10.401Z,95946.41
2023-01-09T17:09:36.769Z,95946.69
2023-01-09T17:12:03.170Z,95949.94
2023-01-09T17:14:29.553Z,95940.25
2023-01-09T17:16:55.964Z,95947.91
2023-01-09T17:19:22.441Z,95950.72
2023-01-09T17:21:48.824Z,95953.66
2023-01-09T17:24:15.227Z,95974.94
2023-01-09T17:26:41.577Z,95978.06
2023-01-09T17:29:07.917Z,95988.34
2023-01-09T17:31:34.296Z,95988.66
2023-01-09T17:34:00.654Z,95987.78
2023-01-09T17:36:27.044Z,95991.47
2023-01-09T17:38:53.390Z,96001.81
2023-01-09T17:41:19.743Z,96014.50
2023-01-09T17:43:46.904Z,96031.53
2023-01-09T17:46:13.329Z,96044.97
2023-01-09T17:48:39.711Z,96029.31
2023-01-09T17:51:06.038Z,96035.88
2023-01-09T17:53:32.425Z,96051.22
2023-01-09T17:55:58.807Z,96052.78
2023-01-09T17:58:25.160Z,96059.84
2023-01-09T18:00:51.543Z,96042.09
2023-01-09T18:03:17.924Z,96050.09
2023-01-09T18:05:44.284Z,96052.94
2023-01-09T18:08:10.682Z,96058.25
2023-01-09T18:10:37.050Z,96060.66
2023-01-09T18:13:03.454Z,96073.06
2023-01-09T18:15:29.846Z,96069.63
2023-01-09T18:17:56.247Z,96076.88
2023-01-09T18:20:22.648Z,96073.88
2023-01-09T18:22:49.049Z,96078.75
2023-01-09T18:25:15.415Z,96093.88
2023-01-09T18:27:41.768Z,96093.59
2023-01-09T18:30:08.142Z,96087.72
2023-01-09T18:32:34.483Z,96093.22
2023-01-09T18:35:00.839Z,96088.19
2023-01-09T18:37:27.211Z,96103.41
2023-01-09T18:39:53.578Z,96116.41
2023-01-09T18:42:19.980Z,96129.50
2023-01-09T18:44:46.332Z,96130.88
2023-01-09T18:47:12.735Z,96125.69
2023-01-09T18:49:39.102Z,96132.78
2023-01-09T18:52:07.561Z,96148.09
2023-01-09T18:54:34.096Z,96141.94
2023-01-09T18:57:00.449Z,96146.56
2023-01-09T18:59:26.810Z,96144.41
2023-01-09T19:01:53.174Z,96158.94
2023-01-09T19:04:19.614Z,96154.38
2023-01-09T19:06:46.017Z,96156.09
2023-01-09T19:09:12.405Z,96163.06
2023-01-09T19:11:38.776Z,96166.16
2023-01-09T19:14:05.139Z,96157.97
2023-01-09T19:16:31.607Z,96155.69
2023-01-09T19:18:58.041Z,96159.81
2023-01-09T19:21:24.424Z,96168.06
2023-01-09T19:23:50.795Z,96173.94
2023-01-09T19:26:17.185Z,96183.81
2023-01-09T19:28:43.576Z,96179.38
2023-01-09T19:31:10.001Z,96179.41
2023-01-09T19:33:36.432Z,96184.41
2023-01-09T19:36:02.780Z,96191.06
2023-01-09T19:38:29.132Z,96177.06
2023-01-09T19:40:55.509Z,96182.81
2023-01-09T19:43:21.864Z,96193.72
2023-01-09T19:45:48.248Z,96188.19
2023-01-09T19:48:14.703Z,96194.09
2023-01-09T19:50:41.073Z,96203.56
2023-01-09T19:53:07.423Z,96206.94
2023-01-09T19:55:33.820Z,96201.28
2023-01-09T19:58:00.182Z,96204.69
2023-01-09T20:00:26.718Z,96214.38
2023-01-09T20:02:53.059Z,96216.50
2023-01-09T20:05:19.407Z,96225.41
2023-01-09T20:07:45.787Z,96212.75
2023-01-09T20:10:12.141Z,96219.69
2023-01-09T20:12:38.533Z,96224.72
2023-01-09T20:15:04.890Z,96219.81
2023-01-09T20:17:31.241Z,96220.25
2023-01-09T20:19:57.631Z,96224.25
2023-01-09T20:22:24.051Z,96218.31
2023-01-09T20:24:50.430Z,96219.59
2023-01-09T20:27:16.780Z,96221.50
2023-01-09T20:29:43.179Z,96220.16
2023-01-09T20:32:09.560Z,96213.56
2023-01-09T20:34:35.911Z,96215.59
2023-01-09T20:37:02.315Z,96215.38
2023-01-09T20:39:28.693Z,96224.81
2023-01-09T20:41:55.055Z,96211.97
2023-01-09T20:44:21.614Z,96216.19
2023-01-09T20:46:48.257Z,96225.72
2023-01-09T20:49:14.715Z,96224.69
2023-01-09T20:51:41.073Z,96234.66
2023-01-09T20:54:07.544Z,96244.06
2023-01-09T20:56:33.910Z,96234.94
2023-01-09T20:59:00.274Z,96239.94
2023-01-09T21:01:26.808Z,96249.63
2023-01-09T21:03:53.294Z,96254.50
2023-01-09T21:06:19.740Z,96254.66
2023-01-09T21:08:46.116Z,96252.56
2023-01-09T21:11:12.586Z,96259.44
2023-01-09T21:13:38.963Z,96270.75
2023-01-09T21:16:06.287Z,96262.31
2023-01-09T21:18:33.086Z,96265.72
2023-01-09T21:20:59.476Z,96265.13
2023-01-09T21:23:25.861Z,96272.88
2023-01-09T21:25:52.224Z,96273.03
2023-01-09T21:28:18.571Z,96273.53
2023-01-09T21:30:44.913Z,96287.16
2023-01-09T21:33:11.274Z,96296.34
2023-01-09T21:35:37.615Z,96276.63
2023-01-09T21:38:04.070Z,96283.28
2023-01-09T21:40:30.504Z,96271.75
2023-01-09T21:42:56.884Z,96261.88
2023-01-09T21:45:23.242Z,96262.47
2023-01-09T21:47:49.692Z,96260.75
2023-01-09T21:50:17.421Z,96258.78
2023-01-09T21:52:43.974Z,96264.94
2023-01-09T21:55:10.330Z,96260.06
2023-01-09T21:57:36.672Z,96256.88
2023-01-09T22:00:03.062Z,96270.22
2023-01-09T22:02:29.407Z,96282.47
2023-01-09T22:04:55.808Z,96285.44
2023-01-09T22:07:22.189Z,96286.56
2023-01-09T22:09:48.569Z,96295.88
2023-01-09T22:12:14.922Z,96307.41
2023-01-09T22:14:41.288Z,96326.63
2023-01-09T22:17:07.672Z,96313.56
2023-01-09T22:19:34.026Z,96326.66
2023-01-09T22:22:00.423Z,96335.50
2023-01-09T22:24:26.794Z,96339.81
2023-01-09T22:26:53.122Z,96339.44
2023-01-09T22:29:19.478Z,96326.50
2023-01-09T22:31:45.945Z,96339.63
2023-01-09T22:34:12.349Z,96360.78
2023-01-09T22:36:38.784Z,96355.69
2023-01-09T22:39:05.162Z,96349.19
2023-01-09T22:41:31.504Z,96353.97
2023-01-09T22:43:57.832Z,96368.88
2023-01-09T22:46:24.273Z,96392.88
2023-01-09T22:48:50.638Z,96406.25
2023-01-09T22:51:16.976Z,96406.50
2023-01-09T22:53:43.339Z,96413.13
2023-01-09T22:56:09.687Z,96407.72
2023-01-09T22:58:36.047Z,96413.13
2023-01-09T23:01:02.384Z,96415.38
2023-01-09T23:03:28.742Z,96422.66
2023-01-09T23:05:55.084Z,96428.69
2023-01-09T23:08:21.431Z,96435.63
2023-01-09T23:10:47.813Z,96433.97
2023-01-09T23:13:14.197Z,96433.00
2023-01-09T23:15:40.619Z,96445.25
2023-01-09T23:18:07.029Z,96463.34
2023-01-09T23:20:33.396Z,96467.13
2023-01-09T23:22:59.752Z,96476.25
2023-01-09T23:25:26.133Z,96469.81
2023-01-09T23:27:52.519Z,96474.28
2023-01-09T23:30:18.898Z,96483.03
2023-01-09T23:32:45.297Z,96482.22
2023-01-09T23:35:11.651Z,96475.19
2023-01-09T23:37:37.996Z,96477.66
2023-01-09T23:40:04.374Z,96473.69
2023-01-09T23:42:30.756Z,96477.63
2023-01-09T23:44:57.114Z,96492.91
2023-01-09T23:47:23.468Z,96497.41
2023-01-09T23:49:49.837Z,96502.81
2023-01-09T23:52:16.225Z,96498.44
2023-01-09T23:54:42.612Z,96492.13
2023-01-09T23:57:08.985Z,96507.34
2023-01-09T23:59:35.376Z,96497.47
